Terminal Aerodrome Forecast
Issued by NWS

Home | Current Version | Previous Version | Text Only | Print | Product List | Glossary On
Versions: 1 2 3 4 5 6 7 8 9 10 11 12
000
FTUS46 KSGX 300525
TAFONT
TAF
KONT 300525Z 3006/0112 VRB04KT P6SM SCT150
     FM302000 26012G20KT P6SM BKN150
     FM010400 VRB05KT P6SM SCT150=

USA.gov is the U.S. government's official web portal to all federal, state and local government web resources and services.